createdAt,value
2023-04-02T00:05:59.431Z,980.7
2023-04-02T00:16:38.221Z,980.7
2023-04-02T00:21:56.925Z,980.9
2023-04-02T00:32:35.304Z,980.9
2023-04-02T00:37:54.319Z,981
2023-04-02T00:48:32.805Z,981
2023-04-02T00:53:52.073Z,981
2023-04-02T01:04:30.289Z,981
2023-04-02T01:15:08.019Z,981.1
2023-04-02T01:20:27.743Z,981.2
2023-04-02T01:31:06.384Z,981.3
2023-04-02T01:36:25.275Z,981.3
2023-04-02T01:47:03.913Z,981.4
2023-04-02T01:57:42.732Z,981.6
2023-04-02T02:03:02.238Z,981.6
2023-04-02T02:13:42.079Z,981.7
2023-04-02T02:19:00.179Z,981.8
2023-04-02T02:29:39.045Z,982
2023-04-02T02:40:17.638Z,982.1
2023-04-02T02:50:56.047Z,982.2
2023-04-02T02:56:15.373Z,982.2
2023-04-02T03:06:54.008Z,982.3
2023-04-02T03:22:52.242Z,982.4
2023-04-02T03:33:30.663Z,982.6
2023-04-02T03:38:49.874Z,982.6
2023-04-02T03:49:28.019Z,982.7
2023-04-02T03:54:53.411Z,982.7
2023-04-02T04:05:25.434Z,982.9
2023-04-02T04:10:44.759Z,983
2023-04-02T04:16:03.968Z,983
2023-04-02T04:21:23.262Z,983.1
2023-04-02T04:32:01.305Z,983.2
2023-04-02T04:37:20.527Z,983.2
2023-04-02T04:47:59.171Z,983.5
2023-04-02T05:03:57.417Z,983.7
2023-04-02T05:14:35.500Z,983.8
2023-04-02T05:19:55.173Z,983.8
2023-04-02T05:30:33.876Z,984
2023-04-02T05:35:53.475Z,984
2023-04-02T05:46:31.587Z,984.2
2023-04-02T05:57:10.767Z,984.3
2023-04-02T06:02:30.602Z,984.4
2023-04-02T06:13:08.911Z,984.6
2023-04-02T06:18:28.129Z,984.7
2023-04-02T06:29:06.758Z,984.8
2023-04-02T06:39:45.221Z,984.9
2023-04-02T06:45:04.585Z,985
2023-04-02T06:55:43.399Z,985.2
2023-04-02T07:01:03.008Z,985.3
2023-04-02T07:12:06.447Z,985.5
2023-04-02T07:17:25.411Z,985.5
2023-04-02T07:28:03.382Z,985.6
2023-04-02T07:33:22.567Z,985.6
2023-04-02T07:44:00.746Z,985.8
2023-04-02T07:54:39.367Z,985.9
2023-04-02T07:59:58.154Z,986
2023-04-02T08:10:37.569Z,986.2
2023-04-02T08:15:56.563Z,986.3
2023-04-02T08:26:35.819Z,986.6
2023-04-02T08:31:54.892Z,986.7
2023-04-02T08:37:13.957Z,986.8
2023-04-02T08:42:33.363Z,987
2023-04-02T08:53:11.492Z,987.1
2023-04-02T08:58:31.024Z,987.2
2023-04-02T09:09:10.175Z,987.4
2023-04-02T09:14:29.541Z,987.5
2023-04-02T09:25:08.741Z,987.8
2023-04-02T09:30:27.666Z,987.9
2023-04-02T09:35:47.154Z,988
2023-04-02T09:46:25.278Z,988.1
2023-04-02T09:51:44.506Z,988.2
2023-04-02T10:02:22.589Z,988.3
2023-04-02T10:18:21.329Z,988.6
2023-04-02T10:28:59.327Z,988.8
2023-04-02T10:34:18.151Z,988.9
2023-04-02T10:44:56.466Z,989
2023-04-02T10:50:16.031Z,989.1
2023-04-02T10:55:35.033Z,989.2
2023-04-02T11:00:53.855Z,989.3
2023-04-02T11:11:31.434Z,989.5
2023-04-02T11:16:50.683Z,989.6
2023-04-02T11:27:29.323Z,989.7
2023-04-02T11:32:49.317Z,989.8
2023-04-02T11:38:08.198Z,989.9
2023-04-02T11:43:27.571Z,990
2023-04-02T11:54:05.395Z,990.1
2023-04-02T11:59:24.920Z,990.2
2023-04-02T12:10:02.988Z,990.4
2023-04-02T12:15:22.697Z,990.4
2023-04-02T12:26:00.558Z,990.5
2023-04-02T12:36:39.088Z,990.6
2023-04-02T12:41:58.327Z,990.7
2023-04-02T12:52:36.599Z,990.9
2023-04-02T12:57:55.810Z,991
2023-04-02T13:08:34.208Z,991
2023-04-02T13:24:32.320Z,991.1
2023-04-02T13:35:10.881Z,991.3
2023-04-02T13:40:30.584Z,991.4
2023-04-02T13:51:09.472Z,991.5
2023-04-02T13:56:28.975Z,991.5
2023-04-02T14:01:47.037Z,991.6
2023-04-02T14:07:06.331Z,991.7
2023-04-02T14:17:45.047Z,991.8
2023-04-02T14:23:04.520Z,991.9
2023-04-02T14:33:42.914Z,992
2023-04-02T14:39:02.104Z,992
2023-04-02T14:49:39.861Z,992.2
2023-04-02T15:00:18.433Z,992.3
2023-04-02T15:05:38.510Z,992.4
2023-04-02T15:16:17.064Z,992.6
2023-04-02T15:21:38.837Z,992.7
2023-04-02T15:32:14.342Z,992.8
2023-04-02T15:48:11.636Z,992.9
2023-04-02T15:58:58.157Z,993.1
2023-04-02T16:04:10.609Z,993.3
2023-04-02T16:14:48.257Z,993.6
2023-04-02T16:20:07.405Z,993.6
2023-04-02T16:25:26.836Z,993.8
2023-04-02T16:36:04.837Z,993.9
2023-04-02T16:41:24.156Z,994.1
2023-04-02T16:52:02.358Z,994.3
2023-04-02T16:57:22.108Z,994.4
2023-04-02T17:08:00.541Z,994.5
2023-04-02T17:18:38.264Z,994.8
2023-04-02T17:23:57.548Z,994.9
2023-04-02T17:34:36.300Z,995
2023-04-02T17:39:55.702Z,995.1
2023-04-02T17:50:35.250Z,995.2
2023-04-02T18:01:13.694Z,995.4
2023-04-02T18:06:32.573Z,995.5
2023-04-02T18:17:10.438Z,995.8
2023-04-02T18:22:30.722Z,995.8
2023-04-02T18:33:08.520Z,996.1
2023-04-02T18:43:46.913Z,996.3
2023-04-02T18:49:06.588Z,996.3
2023-04-02T18:59:45.539Z,996.6
2023-04-02T19:05:04.378Z,996.7
2023-04-02T19:15:43.026Z,996.8
2023-04-02T19:31:40.036Z,996.9
2023-04-02T19:42:19.309Z,997
2023-04-02T19:47:38.501Z,997.1
2023-04-02T19:58:19.473Z,997.2
2023-04-02T20:08:55.126Z,997.3
2023-04-02T20:14:15.172Z,997.3
2023-04-02T20:24:52.802Z,997.4
2023-04-02T20:30:12.204Z,997.5
2023-04-02T20:40:51.888Z,997.6
2023-04-02T20:46:12.128Z,997.7
2023-04-02T20:51:29.577Z,997.8
2023-04-02T20:56:49.410Z,997.9
2023-04-02T21:07:27.418Z,998.1
2023-04-02T21:12:47.300Z,998
2023-04-02T21:23:25.213Z,998.2
2023-04-02T21:28:44.624Z,998.2
2023-04-02T21:34:03.891Z,998.1
2023-04-02T21:39:23.446Z,998.2
2023-04-02T21:50:02.763Z,998.3
2023-04-02T21:55:22.550Z,998.4
2023-04-02T22:06:00.665Z,998.4
2023-04-02T22:11:20.244Z,998.4
2023-04-02T22:16:39.589Z,998.4
2023-04-02T22:21:58.510Z,998.4
2023-04-02T22:32:36.742Z,998.5
2023-04-02T22:37:55.859Z,998.5
2023-04-02T22:48:33.546Z,998.6
2023-04-02T22:53:52.931Z,998.6
2023-04-02T22:59:12.516Z,998.6
2023-04-02T23:09:50.335Z,998.5
2023-04-02T23:15:09.493Z,998.5
2023-04-02T23:25:48.263Z,998.5
2023-04-02T23:31:07.387Z,998.5
2023-04-02T23:36:26.423Z,998.5
2023-04-02T23:41:46.034Z,998.4
2023-04-02T23:52:24.592Z,998.4
2023-04-02T23:57:43.957Z,998.4
